Time;durP1;ratioP1;P1;durP2;ratioP2;P2;SDS_P1;SDS_P2;PMS_P1;PMS_P2;Temp;Humidity;BMP_temperature;BMP_pressure;BME280_temperature;BME280_humidity;BME280_pressure;Samples;Min_cycle;Max_cycle;Signal;HPM_P1;HPM_P2
2022/07/25 00:00:12;;;;;;;12.90;8.08;;;;;;;19.62;100.00;99419.45;1656913;86;21586;-70
2022/07/25 00:02:41;;;;;;;10.30;9.15;;;;;;;19.58;100.00;99419.84;1654510;86;21117;-69
2022/07/25 00:05:08;;;;;;;11.20;10.00;;;;;;;19.56;100.00;99437.10;1640093;86;21057;-70
2022/07/25 00:07:36;;;;;;;10.78;9.35;;;;;;;19.55;100.00;99423.21;1620137;87;20972;-70
2022/07/25 00:10:06;;;;;;;13.00;10.00;;;;;;;19.54;100.00;99423.77;1606641;89;21056;-71
2022/07/25 00:12:38;;;;;;;14.23;10.72;;;;;;;19.55;100.00;99428.67;1634351;87;21092;-71
2022/07/25 00:15:08;;;;;;;15.55;10.10;;;;;;;19.54;100.00;99429.22;1644431;86;21521;-76
2022/07/25 00:17:36;;;;;;;14.30;11.97;;;;;;;19.54;100.00;99429.78;1612733;87;21131;-71
2022/07/25 00:20:04;;;;;;;13.88;10.80;;;;;;;19.53;100.00;99429.53;1634089;87;21015;-70
2022/07/25 00:22:32;;;;;;;14.63;10.85;;;;;;;19.51;100.00;99424.41;1633091;86;20937;-69
2022/07/25 00:25:02;;;;;;;12.05;10.55;;;;;;;19.49;100.00;99422.55;1640079;86;21524;-70
2022/07/25 00:27:29;;;;;;;20.88;12.80;;;;;;;19.50;100.00;99427.44;1659815;85;21029;-70
2022/07/25 00:29:56;;;;;;;20.40;12.40;;;;;;;19.48;100.00;99429.67;1637503;86;21574;-72
2022/07/25 00:32:23;;;;;;;18.52;10.90;;;;;;;19.48;100.00;99425.58;1660899;85;21656;-72
2022/07/25 00:34:50;;;;;;;18.82;13.43;;;;;;;19.47;100.00;99430.22;1659774;86;21000;-73
2022/07/25 00:37:17;;;;;;;14.18;11.53;;;;;;;19.48;100.00;99436.48;1661501;85;21052;-73
2022/07/25 00:39:44;;;;;;;19.95;11.88;;;;;;;19.47;100.00;99433.53;1661295;85;21024;-72
2022/07/25 00:42:10;;;;;;;18.17;12.98;;;;;;;19.42;100.00;99426.27;1657933;85;21248;-71
2022/07/25 00:44:39;;;;;;;18.27;13.32;;;;;;;19.41;100.00;99429.30;1642305;87;20961;-73
2022/07/25 00:47:09;;;;;;;17.02;11.80;;;;;;;19.40;100.00;99420.87;1647204;87;21033;-70
2022/07/25 00:49:36;;;;;;;16.02;12.85;;;;;;;19.37;100.00;99422.31;1647384;87;21036;-73
2022/07/25 00:52:04;;;;;;;16.80;11.50;;;;;;;19.34;100.00;99418.83;1600114;88;21565;-72
2022/07/25 00:54:31;;;;;;;19.80;13.88;;;;;;;19.30;100.00;99418.41;1604030;87;21783;-71
2022/07/25 00:57:00;;;;;;;16.45;11.50;;;;;;;19.26;100.00;99419.61;1648942;87;21069;-76
2022/07/25 00:59:29;;;;;;;20.45;11.83;;;;;;;19.24;100.00;99412.28;1648873;85;21072;-72
2022/07/25 01:01:55;;;;;;;16.95;12.05;;;;;;;19.25;100.00;99424.00;1648554;87;21128;-71
2022/07/25 01:04:25;;;;;;;16.73;11.40;;;;;;;19.23;100.00;99422.97;1648179;87;21029;-71
2022/07/25 01:06:52;;;;;;;16.65;13.18;;;;;;;19.22;100.00;99422.72;1603464;87;21156;-71
2022/07/25 01:09:20;;;;;;;12.07;10.80;;;;;;;19.18;100.00;99422.52;1648440;85;21005;-72
2022/07/25 01:11:48;;;;;;;15.58;11.57;;;;;;;19.15;100.00;99427.24;1633080;87;20961;-71
2022/07/25 01:14:16;;;;;;;15.45;11.95;;;;;;;19.15;100.00;99418.26;1648991;87;21064;-72
2022/07/25 01:16:46;;;;;;;12.73;10.78;;;;;;;19.13;100.00;99415.86;1649015;85;20914;-71
2022/07/25 01:19:13;;;;;;;13.22;10.93;;;;;;;19.13;100.00;99419.95;1640036;85;21372;-70
2022/07/25 01:21:42;;;;;;;16.05;11.97;;;;;;;19.12;100.00;99418.34;1646531;85;21005;-70
2022/07/25 01:24:11;;;;;;;15.83;13.03;;;;;;;19.12;100.00;99409.35;1648516;87;21053;-71
2022/07/25 01:26:39;;;;;;;15.03;10.88;;;;;;;19.10;100.00;99417.02;1648387;87;20997;-70
2022/07/25 01:29:07;;;;;;;13.15;11.43;;;;;;;19.06;100.00;99416.85;1625015;85;21122;-72
2022/07/25 01:31:34;;;;;;;14.40;9.93;;;;;;;19.02;100.00;99424.05;1622221;87;22111;-72
2022/07/25 01:34:01;;;;;;;16.50;10.98;;;;;;;18.99;100.00;99417.84;1637311;87;21077;-80
2022/07/25 01:36:28;;;;;;;11.35;10.25;;;;;;;18.93;100.00;99418.30;1644134;87;21654;-81
2022/07/25 01:38:54;;;;;;;11.60;10.50;;;;;;;18.90;100.00;99414.81;1629707;87;21021;-83
2022/07/25 01:41:22;;;;;;;10.70;9.60;;;;;;;18.88;100.00;99415.70;1618189;88;21094;-84
2022/07/25 01:43:49;;;;;;;13.13;11.08;;;;;;;18.84;100.00;99408.72;1618391;88;21089;-81
2022/07/25 01:46:18;;;;;;;11.90;9.98;;;;;;;18.84;100.00;99418.80;1628210;87;20936;-82
2022/07/25 01:48:44;;;;;;;14.45;10.15;;;;;;;18.84;100.00;99422.34;1623887;87;21020;-82
2022/07/25 01:51:12;;;;;;;16.35;11.15;;;;;;;18.82;100.00;99419.11;1622848;87;21029;-83
2022/07/25 01:53:38;;;;;;;17.12;12.43;;;;;;;18.79;100.00;99416.20;1621934;88;21080;-85
2022/07/25 01:56:07;;;;;;;13.48;11.70;;;;;;;18.77;100.00;99418.42;1648443;87;21193;-78
2022/07/25 01:58:33;;;;;;;11.15;9.98;;;;;;;18.72;100.00;99417.44;1605602;87;21085;-81
2022/07/25 02:01:00;;;;;;;15.00;10.32;;;;;;;18.70;100.00;99420.23;1638532;87;21033;-82
2022/07/25 02:03:29;;;;;;;13.35;11.10;;;;;;;18.68;100.00;99427.91;1637559;87;21114;-81
2022/07/25 02:06:04;;;;;;;17.75;10.95;;;;;;;18.65;100.00;99421.17;1637212;87;21140;-82
2022/07/25 02:08:33;;;;;;;13.85;10.18;;;;;;;18.63;100.00;99422.58;1643019;87;21046;-84
2022/07/25 02:11:01;;;;;;;14.05;10.68;;;;;;;18.60;100.00;99417.20;1625874;87;21154;-79
2022/07/25 02:13:30;;;;;;;13.35;9.23;;;;;;;18.59;100.00;99416.14;1644671;87;21082;-80
2022/07/25 02:15:58;;;;;;;12.05;10.45;;;;;;;18.59;100.00;99417.50;1625456;87;21114;-81
2022/07/25 02:18:24;;;;;;;13.03;11.65;;;;;;;18.59;100.00;99438.74;1614853;87;21114;-81
2022/07/25 02:20:51;;;;;;;18.55;10.78;;;;;;;18.56;100.00;99429.80;1619350;88;21762;-80
2022/07/25 02:23:18;;;;;;;13.95;10.30;;;;;;;18.57;100.00;99424.61;1618844;87;21083;-83
2022/07/25 02:25:44;;;;;;;12.80;10.88;;;;;;;18.59;100.00;99429.76;1625907;87;21047;-85
2022/07/25 02:28:11;;;;;;;10.28;9.05;;;;;;;18.59;100.00;99421.59;1637320;87;21538;-84
2022/07/25 02:30:38;;;;;;;11.12;9.95;;;;;;;18.58;100.00;99418.05;1621145;86;21090;-84
2022/07/25 02:33:05;;;;;;;11.00;9.63;;;;;;;18.56;100.00;99416.19;1648387;86;21118;-80
2022/07/25 02:35:34;;;;;;;10.78;9.68;;;;;;;18.53;100.00;99422.27;1645546;86;21054;-88
2022/07/25 02:38:02;;;;;;;13.05;10.40;;;;;;;18.53;100.00;99429.07;1640411;87;21054;-83
2022/07/25 02:40:29;;;;;;;15.43;10.78;;;;;;;18.54;100.00;99419.80;1636754;87;21037;-87
2022/07/25 02:42:56;;;;;;;10.85;9.85;;;;;;;18.54;100.00;99422.52;1627087;87;21028;-88
2022/07/25 02:45:24;;;;;;;18.95;10.05;;;;;;;18.53;100.00;99431.80;1600867;88;21087;-80
2022/07/25 02:47:52;;;;;;;12.30;10.00;;;;;;;18.50;100.00;99439.20;1620476;87;21014;-81
2022/07/25 02:50:18;;;;;;;12.20;9.90;;;;;;;18.51;100.00;99433.98;1619959;88;21054;-81
2022/07/25 02:52:45;;;;;;;12.18;9.53;;;;;;;18.53;100.00;99435.04;1634742;87;21097;-78
2022/07/25 02:55:13;;;;;;;14.40;9.90;;;;;;;18.51;100.00;99432.62;1647516;86;21021;-82
2022/07/25 02:57:39;;;;;;;12.15;9.63;;;;;;;18.53;100.00;99439.13;1648864;87;21251;-81
2022/07/25 03:00:07;;;;;;;13.98;10.88;;;;;;;18.54;100.00;99443.50;1626781;87;21145;-81
2022/07/25 03:02:34;;;;;;;11.03;9.88;;;;;;;18.53;100.00;99441.84;1597814;88;21622;-83
2022/07/25 03:05:08;;;;;;;14.05;10.60;;;;;;;18.50;100.00;99449.29;1618874;88;21077;-79
2022/07/25 03:07:35;;;;;;;10.30;9.30;;;;;;;18.46;100.00;99453.74;1642482;87;21538;-83
2022/07/25 03:10:05;;;;;;;11.95;9.98;;;;;;;18.44;100.00;99443.15;1645028;87;21971;-81
2022/07/25 03:12:33;;;;;;;13.25;10.03;;;;;;;18.43;100.00;99444.25;1635219;87;21042;-82
2022/07/25 03:15:00;;;;;;;15.15;10.40;;;;;;;18.43;100.00;99443.44;1619040;88;21542;-76
2022/07/25 03:17:27;;;;;;;12.73;10.13;;;;;;;18.43;100.00;99448.89;1618833;88;21137;-81
2022/07/25 03:19:55;;;;;;;11.33;9.48;;;;;;;18.43;100.00;99440.17;1619057;88;21062;-80
2022/07/25 03:22:22;;;;;;;12.53;11.22;;;;;;;18.43;100.00;99444.80;1624986;87;21099;-81
2022/07/25 03:24:49;;;;;;;12.35;9.35;;;;;;;18.40;100.00;99449.52;1610020;87;21614;-82
2022/07/25 03:27:16;;;;;;;11.90;9.68;;;;;;;18.39;100.00;99458.79;1645211;87;21090;-79
2022/07/25 03:29:44;;;;;;;12.90;9.68;;;;;;;18.35;100.00;99439.55;1645422;86;21600;-79
2022/07/25 03:32:10;;;;;;;11.65;8.98;;;;;;;18.34;100.00;99451.55;1620130;88;21113;-80
2022/07/25 03:34:39;;;;;;;13.15;10.13;;;;;;;18.33;100.00;99464.91;1646016;86;21096;-79
2022/07/25 03:37:06;;;;;;;13.60;10.25;;;;;;;18.32;100.00;99451.61;1644364;87;21021;-79
2022/07/25 03:39:32;;;;;;;11.28;9.48;;;;;;;18.30;100.00;99451.91;1619000;88;21022;-81
2022/07/25 03:42:01;;;;;;;17.05;9.60;;;;;;;18.29;100.00;99447.57;1639043;87;21046;-81
2022/07/25 03:44:29;;;;;;;9.88;8.78;;;;;;;18.29;100.00;99439.41;1619410;87;21087;-81
2022/07/25 03:46:55;;;;;;;13.03;9.75;;;;;;;18.28;100.00;99445.41;1596906;88;21139;-86
2022/07/25 03:49:22;;;;;;;11.70;9.30;;;;;;;18.27;100.00;99449.81;1619592;88;21567;-78
2022/07/25 03:51:49;;;;;;;13.78;10.78;;;;;;;18.27;100.00;99445.73;1619834;87;21101;-81
2022/07/25 03:54:17;;;;;;;10.13;8.50;;;;;;;18.28;100.00;99452.76;1648299;87;21032;-83
2022/07/25 03:56:47;;;;;;;16.35;9.48;;;;;;;18.30;100.00;99447.83;1648232;86;21112;-85
2022/07/25 03:59:16;;;;;;;10.30;9.30;;;;;;;18.33;100.00;99462.18;1645860;87;21125;-78
2022/07/25 04:01:44;;;;;;;10.98;9.95;;;;;;;18.35;100.00;99460.52;1644767;87;21073;-79
2022/07/25 04:04:11;;;;;;;12.15;9.58;;;;;;;18.33;100.00;99453.20;1633959;87;21014;-77
2022/07/25 04:06:38;;;;;;;14.03;9.93;;;;;;;18.35;100.00;99453.16;1618888;87;21110;-78
2022/07/25 04:09:07;;;;;;;12.65;9.13;;;;;;;18.40;100.00;99464.49;1622601;87;21076;-75
2022/07/25 04:11:34;;;;;;;9.18;8.20;;;;;;;18.44;100.00;99460.04;1621369;87;21126;-79
2022/07/25 04:14:02;;;;;;;12.10;9.83;;;;;;;18.47;100.00;99455.33;1645222;87;20998;-79
2022/07/25 04:16:30;;;;;;;9.93;8.43;;;;;;;18.48;100.00;99468.65;1645221;86;21551;-79
2022/07/25 04:18:57;;;;;;;18.52;9.08;;;;;;;18.49;100.00;99468.91;1619514;86;21118;-78
2022/07/25 04:21:24;;;;;;;9.70;8.85;;;;;;;18.50;100.00;99468.35;1618894;88;21085;-78
2022/07/25 04:23:50;;;;;;;11.43;8.78;;;;;;;18.47;100.00;99452.61;1639153;87;21077;-79
2022/07/25 04:26:17;;;;;;;9.78;8.70;;;;;;;18.48;100.00;99458.30;1648969;87;21005;-79
2022/07/25 04:28:46;;;;;;;12.85;7.83;;;;;;;18.52;100.00;99457.38;1636909;87;21670;-79
2022/07/25 04:31:13;;;;;;;12.93;7.97;;;;;;;18.55;100.00;99452.73;1619463;88;21039;-80
2022/07/25 04:33:40;;;;;;;11.30;8.13;;;;;;;18.57;100.00;99459.22;1641951;87;21543;-85
2022/07/25 04:36:09;;;;;;;11.63;10.53;;;;;;;18.60;100.00;99462.16;1646024;87;21171;-84
2022/07/25 04:38:36;;;;;;;8.58;7.53;;;;;;;18.66;100.00;99466.90;1645533;87;21062;-83
2022/07/25 04:41:03;;;;;;;8.48;7.58;;;;;;;18.71;100.00;99474.95;1646726;87;20968;-82
2022/07/25 04:43:30;;;;;;;11.25;8.95;;;;;;;18.77;100.00;99483.27;1645127;87;21050;-84
2022/07/25 04:45:57;;;;;;;9.93;9.03;;;;;;;18.83;100.00;99480.67;1646215;87;21644;-80
2022/07/25 04:48:23;;;;;;;8.98;7.08;;;;;;;18.89;100.00;99484.89;1622832;87;21190;-82
2022/07/25 04:50:51;;;;;;;9.03;7.75;;;;;;;18.93;100.00;99474.98;1619402;87;21538;-80
2022/07/25 04:53:19;;;;;;;8.60;7.60;;;;;;;19.00;100.00;99480.78;1633220;87;21029;-82
2022/07/25 04:55:46;;;;;;;8.05;7.25;;;;;;;19.03;99.71;99476.65;1634681;87;21055;-81
2022/07/25 04:58:13;;;;;;;7.33;6.55;;;;;;;19.01;99.19;99476.95;1634812;87;21047;-83
2022/07/25 05:00:40;;;;;;;11.03;7.30;;;;;;;19.01;99.01;99476.95;1634766;87;22151;-80
2022/07/25 05:03:09;;;;;;;8.68;7.78;;;;;;;19.04;98.98;99477.68;1624524;87;21121;-79
2022/07/25 05:05:35;;;;;;;7.20;6.50;;;;;;;19.07;98.60;99472.98;1619188;88;21009;-78
2022/07/25 05:08:02;;;;;;;8.25;6.50;;;;;;;19.12;97.78;99470.69;1632559;87;21058;-81
2022/07/25 05:10:31;;;;;;;7.08;6.45;;;;;;;19.12;96.50;99470.14;1644360;87;21126;-78
2022/07/25 05:12:58;;;;;;;7.67;6.90;;;;;;;19.16;96.44;99483.39;1618320;88;21318;-80
2022/07/25 05:15:25;;;;;;;9.65;7.72;;;;;;;19.22;96.17;99481.90;1619005;88;21030;-80
2022/07/25 05:17:53;;;;;;;12.37;9.28;;;;;;;19.27;96.28;99473.59;1590413;89;20997;-79
2022/07/25 05:20:20;;;;;;;14.78;8.35;;;;;;;19.30;96.43;99476.48;1619433;88;21570;-81
2022/07/25 05:22:48;;;;;;;14.70;9.68;;;;;;;19.34;96.58;99476.66;1600048;88;21050;-80
2022/07/25 05:25:15;;;;;;;11.97;9.33;;;;;;;19.32;96.27;99484.37;1641827;87;21150;-79
2022/07/25 05:27:53;;;;;;;12.28;7.83;;;;;;;19.29;96.49;99478.16;1644963;87;20990;-82
2022/07/25 05:30:16;;;;;;;10.70;8.68;;;;;;;19.30;96.59;99475.13;1643378;87;21020;-79
2022/07/25 05:32:43;;;;;;;9.10;8.20;;;;;;;19.31;96.45;99478.66;1647871;87;21001;-80
2022/07/25 05:35:10;;;;;;;10.78;8.55;;;;;;;19.30;96.46;99471.03;1649003;87;21104;-81
2022/07/25 05:37:37;;;;;;;8.53;7.72;;;;;;;19.29;96.30;99469.97;1648865;87;21226;-78
2022/07/25 05:40:05;;;;;;;10.65;8.78;;;;;;;19.32;96.59;99468.00;1648527;87;21060;-77
2022/07/25 05:42:34;;;;;;;11.28;8.55;;;;;;;19.35;96.54;99471.45;1645511;86;21033;-80
2022/07/25 05:45:01;;;;;;;9.45;8.50;;;;;;;19.37;96.33;99465.95;1644812;86;21030;-79
2022/07/25 05:47:29;;;;;;;10.05;9.03;;;;;;;19.39;96.17;99467.79;1644704;87;21086;-79
2022/07/25 05:49:56;;;;;;;12.10;9.65;;;;;;;19.41;96.16;99471.02;1619297;88;21645;-79
2022/07/25 05:52:22;;;;;;;13.45;9.13;;;;;;;19.42;95.63;99464.45;1622993;87;21133;-77
2022/07/25 05:54:50;;;;;;;10.70;9.60;;;;;;;19.44;95.74;99470.42;1648834;87;21029;-77
2022/07/25 05:57:17;;;;;;;9.68;8.68;;;;;;;19.45;95.09;99470.67;1621874;87;21141;-78
2022/07/25 05:59:44;;;;;;;9.30;8.35;;;;;;;19.48;94.99;99471.95;1619781;87;21085;-75
2022/07/25 06:02:12;;;;;;;12.07;9.60;;;;;;;19.51;95.19;99468.61;1619548;88;21077;-75
2022/07/25 06:04:41;;;;;;;11.65;9.93;;;;;;;19.57;95.20;99476.33;1619073;88;21599;-74
2022/07/25 06:07:07;;;;;;;11.50;8.85;;;;;;;19.64;94.64;99477.25;1631008;87;21555;-74
2022/07/25 06:09:34;;;;;;;12.85;9.40;;;;;;;19.68;93.86;99478.23;1639243;87;21530;-74
2022/07/25 06:12:01;;;;;;;12.23;9.93;;;;;;;19.70;93.41;99476.55;1645050;87;21109;-74
2022/07/25 06:14:28;;;;;;;11.38;8.70;;;;;;;19.69;92.73;99476.30;1647278;87;22143;-74
2022/07/25 06:16:57;;;;;;;12.03;9.68;;;;;;;19.69;92.73;99476.30;1632436;86;21018;-77
2022/07/25 06:19:24;;;;;;;13.10;8.43;;;;;;;19.68;92.52;99467.86;1618918;88;21134;-79
2022/07/25 06:21:52;;;;;;;11.28;8.95;;;;;;;19.70;92.65;99473.27;1625359;87;21125;-79
2022/07/25 06:24:19;;;;;;;13.53;8.73;;;;;;;19.73;91.92;99479.45;1645198;87;21005;-78
2022/07/25 06:26:46;;;;;;;11.00;8.70;;;;;;;19.75;91.52;99470.95;1645161;87;21155;-78
2022/07/25 06:29:14;;;;;;;9.13;8.15;;;;;;;19.77;91.28;99472.80;1642101;87;21106;-77
2022/07/25 06:31:42;;;;;;;9.40;8.48;;;;;;;19.76;90.76;99477.44;1646223;87;21037;-75
2022/07/25 06:34:11;;;;;;;11.88;8.98;;;;;;;19.74;90.98;99463.33;1645264;86;21081;-77
2022/07/25 06:36:38;;;;;;;11.85;8.75;;;;;;;19.74;90.98;99463.33;1638407;87;21070;-77
2022/07/25 06:39:05;;;;;;;12.20;8.50;;;;;;;19.73;90.46;99466.36;1644618;87;21379;-80
2022/07/25 06:41:35;;;;;;;12.28;9.18;;;;;;;19.83;89.13;99466.08;1629114;87;21089;-80
2022/07/25 06:44:02;;;;;;;9.55;8.18;;;;;;;19.83;89.13;99466.08;1627673;86;21080;-76
2022/07/25 06:46:31;;;;;;;9.05;8.10;;;;;;;19.86;89.28;99451.23;1628219;88;21063;-80
2022/07/25 06:49:00;;;;;;;8.40;7.55;;;;;;;19.94;89.61;99460.03;1649510;86;21109;-84
2022/07/25 06:51:27;;;;;;;9.33;8.53;;;;;;;20.01;88.24;99459.55;1656859;86;21574;-79
2022/07/25 06:53:55;;;;;;;9.45;8.05;;;;;;;20.05;88.26;99457.78;1655456;86;21113;-80
2022/07/25 06:56:23;;;;;;;10.35;6.72;;;;;;;20.13;88.56;99469.30;1656771;86;21617;-79
2022/07/25 06:58:50;;;;;;;7.55;6.58;;;;;;;20.23;88.27;99470.93;1653622;86;21530;-77
2022/07/25 07:01:17;;;;;;;7.30;6.70;;;;;;;20.32;87.42;99475.31;1644176;86;21084;-79
2022/07/25 07:03:44;;;;;;;10.85;7.28;;;;;;;20.37;86.76;99468.33;1628697;87;21117;-79
2022/07/25 07:06:11;;;;;;;7.65;6.83;;;;;;;20.40;85.91;99474.51;1628610;87;21531;-81
2022/07/25 07:08:39;;;;;;;9.58;6.97;;;;;;;20.40;84.69;99469.61;1637513;86;21125;-79
2022/07/25 07:11:06;;;;;;;6.85;6.20;;;;;;;20.37;83.85;99475.16;1655009;86;21081;-79
2022/07/25 07:13:33;;;;;;;6.72;5.92;;;;;;;20.36;83.81;99466.72;1657107;86;21462;-78
2022/07/25 07:16:00;;;;;;;6.80;6.20;;;;;;;20.38;84.44;99490.41;1643406;86;21524;-79
2022/07/25 07:18:28;;;;;;;6.70;6.08;;;;;;;20.40;83.73;99475.07;1650410;86;21598;-76
2022/07/25 07:20:55;;;;;;;7.37;6.17;;;;;;;20.41;83.14;99475.32;1642569;86;22247;-78
2022/07/25 07:23:21;;;;;;;6.22;5.62;;;;;;;20.40;81.74;99473.14;1657561;86;21033;-78
2022/07/25 07:25:51;;;;;;;12.63;7.83;;;;;;;20.43;81.86;99478.55;1656325;86;21037;-78
2022/07/25 07:28:19;;;;;;;13.32;8.70;;;;;;;20.46;81.26;99469.70;1650619;86;20998;-79
2022/07/25 07:30:47;;;;;;;6.22;5.58;;;;;;;20.47;80.87;99475.41;1656161;86;21133;-79
2022/07/25 07:33:15;;;;;;;5.30;4.90;;;;;;;20.52;79.88;99490.28;1659115;85;21045;-78
2022/07/25 07:35:43;;;;;;;8.48;6.10;;;;;;;20.58;79.15;99471.78;1654727;86;21108;-77
2022/07/25 07:38:11;;;;;;;6.67;5.47;;;;;;;20.63;78.69;99475.72;1633693;85;21601;-77
2022/07/25 07:40:39;;;;;;;6.42;5.75;;;;;;;20.68;79.11;99464.06;1641676;86;21032;-76
2022/07/25 07:43:06;;;;;;;6.80;5.78;;;;;;;20.77;79.20;99463.50;1655470;86;21593;-79
2022/07/25 07:45:34;;;;;;;6.72;5.65;;;;;;;20.85;78.85;99464.64;1655685;86;21052;-80
2022/07/25 07:48:01;;;;;;;6.53;5.92;;;;;;;20.94;79.12;99486.49;1655666;86;21017;-79
2022/07/25 07:50:28;;;;;;;6.08;5.47;;;;;;;20.98;77.62;99471.85;1654943;86;21054;-79
2022/07/25 07:52:55;;;;;;;10.88;5.78;;;;;;;21.02;77.47;99473.37;1646148;86;21070;-77
2022/07/25 07:58:08;;;;;;;5.60;5.10;;;;;;;20.98;76.44;99477.88;1635990;86;21105;-78
2022/07/25 08:00:38;;;;;;;5.65;5.20;;;;;;;20.99;76.41;99491.23;1644985;86;21080;-78
2022/07/25 08:03:07;;;;;;;11.50;5.53;;;;;;;21.02;75.73;99473.37;1627242;87;21011;-78
2022/07/25 08:05:38;;;;;;;5.25;4.72;;;;;;;21.05;74.94;99472.73;1657015;86;21108;-77
2022/07/25 08:08:08;;;;;;;6.57;5.07;;;;;;;21.13;75.28;99468.65;1655696;86;21061;-76
2022/07/25 08:10:38;;;;;;;5.12;4.70;;;;;;;21.25;74.71;99470.70;1655543;86;21060;-78
2022/07/25 08:13:25;;;;;;;5.95;5.37;;;;;;;21.38;74.49;99488.87;1640852;85;21605;-78
2022/07/25 08:15:59;;;;;;;5.22;4.50;;;;;;;21.44;72.65;99470.34;1675841;85;21160;-77
2022/07/25 08:18:28;;;;;;;6.67;5.33;;;;;;;21.45;71.69;99485.05;1649172;86;21334;-78
2022/07/25 08:20:56;;;;;;;6.42;5.17;;;;;;;21.49;71.82;99476.98;1634732;86;21132;-78
2022/07/25 08:23:24;;;;;;;5.90;4.95;;;;;;;21.51;71.38;99471.44;1655058;86;21621;-78
2022/07/25 08:25:52;;;;;;;4.87;4.47;;;;;;;21.54;71.42;99492.67;1655465;86;21618;-77
2022/07/25 08:28:19;;;;;;;5.53;4.97;;;;;;;21.58;70.67;99470.34;1629237;86;21083;-79
2022/07/25 08:30:49;;;;;;;5.92;5.30;;;;;;;21.67;69.89;99481.28;1647038;86;21165;-76
2022/07/25 08:33:16;;;;;;;4.92;4.53;;;;;;;21.72;69.16;99475.07;1629545;86;21093;-77
2022/07/25 08:35:52;;;;;;;7.20;4.87;;;;;;;21.77;68.99;99480.13;1628894;88;21065;-78
2022/07/25 08:38:20;;;;;;;5.30;4.80;;;;;;;21.80;69.43;99482.19;1637773;86;21638;-78
2022/07/25 08:40:52;;;;;;;6.50;5.03;;;;;;;21.84;68.53;99492.72;1655707;86;21009;-78
2022/07/25 08:43:20;;;;;;;4.75;4.25;;;;;;;21.84;68.13;99485.87;1655742;86;21108;-76
2022/07/25 08:45:54;;;;;;;4.72;4.33;;;;;;;21.90;68.14;99481.27;1634146;86;21085;-77
2022/07/25 08:48:26;;;;;;;4.87;4.35;;;;;;;21.93;65.98;99489.37;1628917;88;21137;-78
2022/07/25 08:50:55;;;;;;;5.83;4.65;;;;;;;21.99;66.24;99457.40;1630436;86;21094;-79
2022/07/25 08:53:22;;;;;;;7.08;4.53;;;;;;;22.04;66.29;99463.25;1618785;86;21603;-77
2022/07/25 08:55:49;;;;;;;3.85;3.55;;;;;;;22.10;65.46;99498.35;1630265;88;21173;-75
2022/07/25 08:58:16;;;;;;;4.95;4.35;;;;;;;22.14;64.87;99476.00;1677970;85;21135;-76
2022/07/25 09:00:43;;;;;;;4.55;4.05;;;;;;;22.22;65.70;99470.22;1610776;88;21598;-76
2022/07/25 09:03:10;;;;;;;6.33;4.83;;;;;;;22.33;65.48;99455.58;1621226;87;20972;-72
2022/07/25 09:05:38;;;;;;;5.35;3.70;;;;;;;22.39;65.41;99463.27;1645604;86;21053;-75
2022/07/25 09:08:10;;;;;;;4.42;4.08;;;;;;;22.47;65.49;99475.30;1654579;86;21260;-75
2022/07/25 09:10:38;;;;;;;4.37;3.95;;;;;;;22.49;63.91;99484.78;1655564;86;21140;-72
2022/07/25 09:13:12;;;;;;;4.90;4.40;;;;;;;22.54;62.70;99482.44;1656614;86;21573;-71
2022/07/25 09:15:50;;;;;;;;;;;;;;;22.57;62.59;99479.02;1657538;86;21013;-71
2022/07/25 09:18:23;;;;;;;8.80;5.25;;;;;;;22.64;62.38;99471.63;1605041;88;20257;-72
2022/07/25 09:20:55;;;;;;;4.28;3.98;;;;;;;22.72;61.54;99460.63;1647445;86;21149;-73
2022/07/25 09:23:38;;;;;;;4.78;4.33;;;;;;;22.79;61.29;99462.80;1653744;86;21090;-73
2022/07/25 09:26:08;;;;;;;4.55;4.15;;;;;;;22.83;61.66;99457.67;1615335;88;21136;-71
2022/07/25 09:28:50;;;;;;;5.00;3.87;;;;;;;22.86;61.77;99450.17;1628794;88;21089;-75
2022/07/25 09:31:17;;;;;;;4.75;4.35;;;;;;;22.89;61.94;99458.28;1629149;88;21117;-73
2022/07/25 09:33:55;;;;;;;7.50;5.45;;;;;;;22.89;61.53;99459.08;1634860;86;21273;-72
2022/07/25 09:36:23;;;;;;;5.90;3.72;;;;;;;22.88;60.89;99471.75;1641995;86;21097;-78
2022/07/25 09:38:55;;;;;;;4.75;4.37;;;;;;;22.91;59.87;99465.05;1653125;86;21118;-76
2022/07/25 09:41:38;;;;;;;6.60;4.95;;;;;;;22.92;60.27;99455.69;1655189;86;21064;-77
2022/07/25 09:44:21;;;;;;;5.10;4.47;;;;;;;22.98;58.48;99469.97;1642536;86;21118;-77
2022/07/25 09:46:48;;;;;;;;;;;;;;;23.04;58.79;99443.37;1629139;87;21089;-77
2022/07/25 09:49:15;;;;;;;7.20;4.22;;;;;;;23.11;59.00;99455.73;1626615;88;20232;-75
2022/07/25 09:51:42;;;;;;;5.58;4.58;;;;;;;23.16;58.32;99449.47;1627692;88;21094;-71
2022/07/25 09:54:08;;;;;;;3.95;3.55;;;;;;;23.22;57.81;99479.66;1624233;88;20976;-73
2022/07/25 09:56:37;;;;;;;3.80;3.50;;;;;;;23.24;57.71;99456.80;1604117;88;21075;-73
2022/07/25 09:59:05;;;;;;;3.83;3.52;;;;;;;23.24;58.27;99454.06;1607146;88;21378;-71
2022/07/25 10:01:37;;;;;;;4.10;3.70;;;;;;;23.29;54.83;99455.78;1618065;88;21084;-74
2022/07/25 10:04:22;;;;;;;4.55;3.30;;;;;;;23.30;54.60;99460.14;1611782;88;21050;-76
2022/07/25 10:07:04;;;;;;;5.28;3.52;;;;;;;23.34;53.94;99462.42;1602625;89;21174;-79
2022/07/25 10:09:31;;;;;;;;;;;;;;;23.42;54.64;99447.80;1614509;88;21044;-79
2022/07/25 10:12:08;;;;;;;3.77;3.47;;;;;;;23.48;54.64;99445.09;1622360;86;20160;-72
2022/07/25 10:14:35;;;;;;;4.62;3.20;;;;;;;23.60;54.26;99438.80;1594443;88;21078;-88
2022/07/25 10:17:07;;;;;;;4.08;3.67;;;;;;;23.69;55.30;99448.53;1600661;89;21105;-74
2022/07/25 10:19:43;;;;;;;4.92;3.40;;;;;;;23.80;55.67;99455.18;1595413;86;39056;-75
2022/07/25 10:22:10;;;;;;;4.53;3.10;;;;;;;23.86;55.32;99446.95;1604210;88;21135;-79
2022/07/25 10:24:38;;;;;;;5.05;3.87;;;;;;;23.84;52.62;99461.59;1601916;89;21122;-73
2022/07/25 10:27:10;;;;;;;4.72;3.37;;;;;;;23.84;52.23;99444.30;1625143;86;21055;-71
2022/07/25 10:29:40;;;;;;;5.53;3.60;;;;;;;23.85;52.96;99434.92;1603358;88;21134;-69
2022/07/25 10:32:10;;;;;;;3.25;2.75;;;;;;;23.93;53.50;99449.12;1634161;86;21166;-69
2022/07/25 10:34:37;;;;;;;3.37;3.08;;;;;;;23.93;52.64;99439.52;1627937;88;21372;-70
2022/07/25 10:37:11;;;;;;;3.95;3.65;;;;;;;23.90;52.32;99440.99;1614853;88;21255;-70
2022/07/25 10:39:40;;;;;;;3.70;3.00;;;;;;;23.93;53.64;99447.76;1628056;88;21056;-83
2022/07/25 10:42:07;;;;;;;5.05;3.37;;;;;;;24.06;53.16;99449.34;1627383;88;21079;-72
2022/07/25 10:44:47;;;;;;;3.40;3.10;;;;;;;24.13;53.26;99431.69;1586373;88;21612;-70
2022/07/25 10:47:16;;;;;;;4.42;3.72;;;;;;;24.23;52.93;99424.94;1623021;86;21088;-70
2022/07/25 10:49:47;;;;;;;4.58;3.10;;;;;;;24.33;51.77;99446.45;1603597;89;21200;-70
2022/07/25 10:52:16;;;;;;;4.83;3.52;;;;;;;24.39;50.06;99438.77;1602775;89;21087;-73
2022/07/25 10:54:55;;;;;;;3.47;3.17;;;;;;;24.44;49.88;99433.03;1584736;89;21025;-72
2022/07/25 10:57:22;;;;;;;2.75;2.55;;;;;;;24.50;50.43;99428.90;1607266;88;21048;-71
2022/07/25 10:59:49;;;;;;;5.28;3.65;;;;;;;24.58;50.11;99438.38;1610906;86;21040;-70
2022/07/25 11:02:16;;;;;;;5.47;3.02;;;;;;;24.65;49.31;99430.31;1616848;88;22252;-70
2022/07/25 11:04:47;;;;;;;5.35;3.17;;;;;;;24.67;50.14;99434.09;1614310;88;21101;-74
2022/07/25 11:07:20;;;;;;;3.33;3.02;;;;;;;24.73;49.89;99436.84;1623974;88;21134;-72
2022/07/25 11:09:44;;;;;;;3.35;2.80;;;;;;;24.73;49.12;99424.45;1622444;88;21052;-70
2022/07/25 11:12:16;;;;;;;4.20;3.50;;;;;;;24.72;49.74;99428.35;1565379;89;21053;-71
2022/07/25 11:14:42;;;;;;;4.45;2.98;;;;;;;24.79;49.87;99436.81;1615766;88;21107;-69
2022/07/25 11:17:14;;;;;;;11.68;3.60;;;;;;;24.83;49.57;99430.03;1602401;88;21063;-70
2022/07/25 11:19:45;;;;;;;5.80;3.72;;;;;;;24.89;49.43;99427.30;1605493;88;21047;-71
2022/07/25 11:22:12;;;;;;;3.33;3.12;;;;;;;24.94;48.20;99429.19;1615009;88;21060;-71
2022/07/25 11:24:45;;;;;;;2.67;2.47;;;;;;;24.98;48.47;99413.60;1603086;89;21072;-71
2022/07/25 11:27:24;;;;;;;3.47;3.20;;;;;;;25.09;48.71;99420.17;1601460;88;22159;-73
2022/07/25 11:29:51;;;;;;;4.70;3.35;;;;;;;25.23;49.53;99436.25;1584163;88;21078;-70
2022/07/25 11:32:18;;;;;;;4.47;3.50;;;;;;;25.25;47.52;99420.77;1613927;88;21095;-69